F/V Matmaco — FVNS — position and weather

sailwx.info

Track history (hours):
 
Tides and Currents Weather Stations Pressure Air Temp Water Temp Dewpoint Dewpoint Depression Visibility Wind Speed Wind Dir Waves Ship Positions

F/V Matmaco

Last reported at 2018-Jul-23 06:54 UTC. Time now 2018-Jul-23 11:40 UTC.
Position N 46°06' W 002°30'.

Length 20 m.

Type: Other ship. MMSI: 228194000.

Date/timePositionNaut miles runAvg speedWind from/ knotsBaromVisibWave heightAir tempDewpointWater temp
2018-Jul-23 06:54N 46°06' W 002°30'52 1.8
2018-Jul-22 01:10N 46°58' W 002°40'2 9.6
2018-Jul-22 00:59N 46°60' W 002°39'6 9.3
2018-Jul-22 00:23N 47°05' W 002°37'3 9.1
2018-Jul-22 00:00N 47°09' W 002°37'5 9.4
2018-Jul-21 23:30N 47°13' W 002°35'5 9.4
2018-Jul-21 23:00N 47°18' W 002°34'2 3.7
2018-Jul-21 22:28N 47°18' W 002°31'0 0.0
2018-Jul-21 03:25N 47°18' W 002°31'0 0.0
2018-Jul-21 02:50N 47°18' W 002°31'0 0.0
2018-Jul-21 02:10N 47°18' W 002°31'0 0.0
2018-Jul-21 01:37N 47°18' W 002°31'0 0.0
2018-Jul-21 00:56N 47°18' W 002°31'0 0.1
2018-Jul-20 23:37N 47°18' W 002°31'0 0.2
2018-Jul-20 23:29N 47°18' W 002°31'0 0.0
2018-Jul-20 23:00N 47°18' W 002°31'2 4.2
2018-Jul-20 22:25N 47°19' W 002°34'63 2.4
2018-Jul-19 19:47N 46°16' W 002°42'20 1.0
2018-Jul-19 00:14N 46°18' W 002°12'3 8.2
2018-Jul-18 23:55N 46°19' W 002°09'4 8.6
2018-Jul-18 23:30N 46°21' W 002°04'4 8.1
2018-Jul-18 23:00N 46°23' W 001°59'4 8.1
2018-Jul-18 22:30N 46°25' W 001°54'5 8.8
2018-Jul-18 21:59N 46°28' W 001°49'2 5.0
2018-Jul-18 21:30N 46°30' W 001°48'0 0.0
2018-Jul-18 21:00N 46°30' W 001°48'3 5.6
2018-Jul-18 20:30N 46°27' W 001°49'5 9.1
2018-Jul-18 20:00N 46°25' W 001°54'5 9.1
2018-Jul-18 19:30N 46°22' W 001°60'5 9.4
2018-Jul-18 18:59N 46°19' W 002°06'3 0.1
2018-Jul-16 22:53N 46°21' W 002°02'3 7.7
2018-Jul-16 22:26N 46°23' W 001°58'3 7.5
2018-Jul-16 22:00N 46°25' W 001°54'4 7.5
2018-Jul-16 21:30N 46°27' W 001°49'3 6.1
2018-Jul-16 21:00N 46°30' W 001°48'0 0.2
2018-Jul-16 20:30N 46°30' W 001°48'0 0.0
2018-Jul-16 20:00N 46°30' W 001°48'3 7.0
2018-Jul-16 19:31N 46°27' W 001°50'5 8.9
2018-Jul-16 18:58N 46°23' W 001°55'30 2.3
2018-Jul-16 06:04N 46°05' W 002°29'0 3.5
2018-Jul-16 06:00N 46°05' W 002°28'5 2.3
2018-Jul-16 03:53N 46°00' W 002°27'1 3.6
2018-Jul-16 03:30N 45°60' W 002°29'1 2.4
2018-Jul-16 02:54N 46°01' W 002°28'1 1.7
2018-Jul-16 02:20N 46°02' W 002°28'3 3.7
2018-Jul-16 01:32N 46°04' W 002°31'1 4.0
2018-Jul-16 01:24N 46°04' W 002°31'3 3.9
2018-Jul-16 00:43N 46°01' W 002°30'1 3.9
2018-Jul-16 00:27N 46°00' W 002°29'2 3.8
2018-Jul-16 00:00N 45°59' W 002°28'2 3.9
2018-Jul-15 23:26N 45°57' W 002°27'2 3.6
2018-Jul-15 23:00N 45°55' W 002°26'2 3.8
2018-Jul-15 22:30N 45°55' W 002°23'1 2.2
2018-Jul-15 22:00N 45°56' W 002°22'4 3.4
2018-Jul-15 20:44N 45°58' W 002°28'1 3.8
2018-Jul-15 20:30N 45°59' W 002°28'1 2.4
2018-Jul-15 20:00N 45°60' W 002°27'2 3.6
2018-Jul-15 19:30N 46°02' W 002°27'2 3.8
2018-Jul-15 19:00N 46°04' W 002°26'1 1.9
2018-Jul-15 18:30N 46°04' W 002°25'2 3.2
2018-Jul-15 17:57N 46°03' W 002°27'2 3.8
2018-Jul-15 17:30N 46°05' W 002°27'2 3.3
2018-Jul-15 16:55N 46°04' W 002°25'1 3.2
2018-Jul-15 16:30N 46°03' W 002°26'2 3.8
2018-Jul-15 15:57N 46°03' W 002°29'1 2.9
2018-Jul-15 15:29N 46°02' W 002°30'2 3.5
2018-Jul-15 14:50N 45°60' W 002°28'1 2.4
2018-Jul-15 14:30N 46°00' W 002°27'2 3.6
2018-Jul-15 13:57N 46°02' W 002°28'2 3.7
2018-Jul-15 13:30N 46°03' W 002°30'4 2.9
2018-Jul-15 12:14N 45°60' W 002°28'1 3.4
2018-Jul-15 12:00N 46°00' W 002°27'3 3.7
2018-Jul-15 11:18N 46°03' W 002°29'1 2.6
2018-Jul-15 10:59N 46°03' W 002°29'5 3.6
2018-Jul-15 09:27N 46°07' W 002°35'2 3.6
2018-Jul-15 08:57N 46°09' W 002°36'4 3.5
2018-Jul-15 07:50N 46°11' W 002°40'29 4.1
2018-Jul-15 00:51N 46°40' W 002°41'5 8.0
2018-Jul-15 00:12N 46°45' W 002°41'2 8.1
2018-Jul-14 23:59N 46°47' W 002°40'4 8.1
2018-Jul-14 23:28N 46°51' W 002°39'4 8.0
2018-Jul-14 22:58N 46°55' W 002°39'4 8.4
2018-Jul-14 22:30N 46°59' W 002°38'4 8.7
2018-Jul-14 22:00N 47°03' W 002°37'4 8.9
2018-Jul-14 21:30N 47°07' W 002°37'8 8.9
2018-Jul-14 20:39N 47°15' W 002°35'1 8.8
2018-Jul-14 20:30N 47°16' W 002°35'3 6.8
2018-Jul-14 19:59N 47°19' W 002°32'1 0.1
2018-Jul-14 05:12N 47°18' W 002°31'0 0.0
2018-Jul-14 05:00N 47°18' W 002°31'0 0.0
2018-Jul-14 04:29N 47°18' W 002°31'0 0.0
2018-Jul-14 04:00N 47°18' W 002°31'0 0.0
2018-Jul-14 03:26N 47°18' W 002°31'0 0.1
2018-Jul-14 02:51N 47°18' W 002°31'0 0.0
2018-Jul-14 02:25N 47°18' W 002°31'0 0.0
2018-Jul-14 02:00N 47°18' W 002°31'0 0.0
2018-Jul-14 01:30N 47°18' W 002°31'3 3.4
2018-Jul-14 00:41N 47°17' W 002°35'2 9.3
2018-Jul-14 00:28N 47°16' W 002°37'5 9.6
2018-Jul-13 23:59N 47°12' W 002°41'5 9.9
2018-Jul-13 23:29N 47°08' W 002°45'4 9.3
2018-Jul-13 23:00N 47°05' W 002°49'4 8.9
2018-Jul-13 22:30N 47°01' W 002°53'16 5.8
2018-Jul-13 19:50N 46°47' W 003°04'1 3.2
2018-Jul-13 19:30N 46°46' W 003°05'2 3.3
2018-Jul-13 18:56N 46°45' W 003°04'2 3.6
2018-Jul-13 18:29N 46°43' W 003°03'2 3.5
2018-Jul-13 17:59N 46°42' W 003°02'7 3.4
2018-Jul-13 15:48N 46°35' W 002°58'1 2.0
2018-Jul-13 15:27N 46°34' W 002°58'3 0.9
2018-Jul-13 12:14N 46°32' W 003°01'2 6.7
2018-Jul-13 11:57N 46°31' W 003°03'6 3.0
2018-Jul-13 09:56N 46°26' W 003°07'  
Track history (hours):
 
Tides and Currents Weather Stations Pressure Air Temp Water Temp Dewpoint Dewpoint Depression Visibility Wind Speed Wind Dir Waves Ship Positions

F/V Matmaco

Last reported at 2018-Jul-23 06:54 UTC. Time now 2018-Jul-23 11:40 UTC.
Position N 46°06' W 002°30'.

Length 20 m.

Type: Other ship. MMSI: 228194000.

Date/timePositionNaut miles runAvg speedWind from/ knotsBaromVisibWave heightAir tempDewpointWater temp
2018-Jul-23 06:54N 46°06' W 002°30'52 1.8
2018-Jul-22 01:10N 46°58' W 002°40'2 9.6
2018-Jul-22 00:59N 46°60' W 002°39'6 9.3
2018-Jul-22 00:23N 47°05' W 002°37'3 9.1
2018-Jul-22 00:00N 47°09' W 002°37'5 9.4
2018-Jul-21 23:30N 47°13' W 002°35'5 9.4
2018-Jul-21 23:00N 47°18' W 002°34'2 3.7
2018-Jul-21 22:28N 47°18' W 002°31'0 0.0
2018-Jul-21 03:25N 47°18' W 002°31'0 0.0
2018-Jul-21 02:50N 47°18' W 002°31'0 0.0
2018-Jul-21 02:10N 47°18' W 002°31'0 0.0
2018-Jul-21 01:37N 47°18' W 002°31'0 0.0
2018-Jul-21 00:56N 47°18' W 002°31'0 0.1
2018-Jul-20 23:37N 47°18' W 002°31'0 0.2
2018-Jul-20 23:29N 47°18' W 002°31'0 0.0
2018-Jul-20 23:00N 47°18' W 002°31'2 4.2
2018-Jul-20 22:25N 47°19' W 002°34'63 2.4
2018-Jul-19 19:47N 46°16' W 002°42'20 1.0
2018-Jul-19 00:14N 46°18' W 002°12'3 8.2
2018-Jul-18 23:55N 46°19' W 002°09'4 8.6
2018-Jul-18 23:30N 46°21' W 002°04'4 8.1
2018-Jul-18 23:00N 46°23' W 001°59'4 8.1
2018-Jul-18 22:30N 46°25' W 001°54'5 8.8
2018-Jul-18 21:59N 46°28' W 001°49'2 5.0
2018-Jul-18 21:30N 46°30' W 001°48'0 0.0
2018-Jul-18 21:00N 46°30' W 001°48'3 5.6
2018-Jul-18 20:30N 46°27' W 001°49'5 9.1
2018-Jul-18 20:00N 46°25' W 001°54'5 9.1
2018-Jul-18 19:30N 46°22' W 001°60'5 9.4
2018-Jul-18 18:59N 46°19' W 002°06'3 0.1
2018-Jul-16 22:53N 46°21' W 002°02'3 7.7
2018-Jul-16 22:26N 46°23' W 001°58'3 7.5
2018-Jul-16 22:00N 46°25' W 001°54'4 7.5
2018-Jul-16 21:30N 46°27' W 001°49'3 6.1
2018-Jul-16 21:00N 46°30' W 001°48'0 0.2
2018-Jul-16 20:30N 46°30' W 001°48'0 0.0
2018-Jul-16 20:00N 46°30' W 001°48'3 7.0
2018-Jul-16 19:31N 46°27' W 001°50'5 8.9
2018-Jul-16 18:58N 46°23' W 001°55'30 2.3
2018-Jul-16 06:04N 46°05' W 002°29'0 3.5
2018-Jul-16 06:00N 46°05' W 002°28'5 2.3
2018-Jul-16 03:53N 46°00' W 002°27'1 3.6
2018-Jul-16 03:30N 45°60' W 002°29'1 2.4
2018-Jul-16 02:54N 46°01' W 002°28'1 1.7
2018-Jul-16 02:20N 46°02' W 002°28'3 3.7
2018-Jul-16 01:32N 46°04' W 002°31'1 4.0
2018-Jul-16 01:24N 46°04' W 002°31'3 3.9
2018-Jul-16 00:43N 46°01' W 002°30'1 3.9
2018-Jul-16 00:27N 46°00' W 002°29'2 3.8
2018-Jul-16 00:00N 45°59' W 002°28'2 3.9
2018-Jul-15 23:26N 45°57' W 002°27'2 3.6
2018-Jul-15 23:00N 45°55' W 002°26'2 3.8
2018-Jul-15 22:30N 45°55' W 002°23'1 2.2
2018-Jul-15 22:00N 45°56' W 002°22'4 3.4
2018-Jul-15 20:44N 45°58' W 002°28'1 3.8
2018-Jul-15 20:30N 45°59' W 002°28'1 2.4
2018-Jul-15 20:00N 45°60' W 002°27'2 3.6
2018-Jul-15 19:30N 46°02' W 002°27'2 3.8
2018-Jul-15 19:00N 46°04' W 002°26'1 1.9
2018-Jul-15 18:30N 46°04' W 002°25'2 3.2
2018-Jul-15 17:57N 46°03' W 002°27'2 3.8
2018-Jul-15 17:30N 46°05' W 002°27'2 3.3
2018-Jul-15 16:55N 46°04' W 002°25'1 3.2
2018-Jul-15 16:30N 46°03' W 002°26'2 3.8
2018-Jul-15 15:57N 46°03' W 002°29'1 2.9
2018-Jul-15 15:29N 46°02' W 002°30'2 3.5
2018-Jul-15 14:50N 45°60' W 002°28'1 2.4
2018-Jul-15 14:30N 46°00' W 002°27'2 3.6
2018-Jul-15 13:57N 46°02' W 002°28'2 3.7
2018-Jul-15 13:30N 46°03' W 002°30'4 2.9
2018-Jul-15 12:14N 45°60' W 002°28'1 3.4
2018-Jul-15 12:00N 46°00' W 002°27'3 3.7
2018-Jul-15 11:18N 46°03' W 002°29'1 2.6
2018-Jul-15 10:59N 46°03' W 002°29'5 3.6
2018-Jul-15 09:27N 46°07' W 002°35'2 3.6
2018-Jul-15 08:57N 46°09' W 002°36'4 3.5
2018-Jul-15 07:50N 46°11' W 002°40'29 4.1
2018-Jul-15 00:51N 46°40' W 002°41'5 8.0
2018-Jul-15 00:12N 46°45' W 002°41'2 8.1
2018-Jul-14 23:59N 46°47' W 002°40'4 8.1
2018-Jul-14 23:28N 46°51' W 002°39'4 8.0
2018-Jul-14 22:58N 46°55' W 002°39'4 8.4
2018-Jul-14 22:30N 46°59' W 002°38'4 8.7
2018-Jul-14 22:00N 47°03' W 002°37'4 8.9
2018-Jul-14 21:30N 47°07' W 002°37'8 8.9
2018-Jul-14 20:39N 47°15' W 002°35'1 8.8
2018-Jul-14 20:30N 47°16' W 002°35'3 6.8
2018-Jul-14 19:59N 47°19' W 002°32'1 0.1
2018-Jul-14 05:12N 47°18' W 002°31'0 0.0
2018-Jul-14 05:00N 47°18' W 002°31'0 0.0
2018-Jul-14 04:29N 47°18' W 002°31'0 0.0
2018-Jul-14 04:00N 47°18' W 002°31'0 0.0
2018-Jul-14 03:26N 47°18' W 002°31'0 0.1
2018-Jul-14 02:51N 47°18' W 002°31'0 0.0
2018-Jul-14 02:25N 47°18' W 002°31'0 0.0
2018-Jul-14 02:00N 47°18' W 002°31'0 0.0
2018-Jul-14 01:30N 47°18' W 002°31'3 3.4
2018-Jul-14 00:41N 47°17' W 002°35'2 9.3
2018-Jul-14 00:28N 47°16' W 002°37'5 9.6
2018-Jul-13 23:59N 47°12' W 002°41'5 9.9
2018-Jul-13 23:29N 47°08' W 002°45'4 9.3
2018-Jul-13 23:00N 47°05' W 002°49'4 8.9
2018-Jul-13 22:30N 47°01' W 002°53'16 5.8
2018-Jul-13 19:50N 46°47' W 003°04'1 3.2
2018-Jul-13 19:30N 46°46' W 003°05'2 3.3
2018-Jul-13 18:56N 46°45' W 003°04'2 3.6
2018-Jul-13 18:29N 46°43' W 003°03'2 3.5
2018-Jul-13 17:59N 46°42' W 003°02'7 3.4
2018-Jul-13 15:48N 46°35' W 002°58'1 2.0
2018-Jul-13 15:27N 46°34' W 002°58'3 0.9
2018-Jul-13 12:14N 46°32' W 003°01'2 6.7
2018-Jul-13 11:57N 46°31' W 003°03'6 3.0
2018-Jul-13 09:56N 46°26' W 003°07'  

Dump ship's entire track history